Time;durP1;ratioP1;P1;durP2;ratioP2;P2;SDS_P1;SDS_P2;PMS_P1;PMS_P2;Temp;Humidity;BMP_temperature;BMP_pressure;BME280_temperature;BME280_humidity;BME280_pressure;Samples;Min_cycle;Max_cycle;Signal;HPM_P1;HPM_P2
2021/08/30 00:01:13;;;;;;;13.07;8.20;;;16.10;99.90;;;;;;5012491;28;20083;-77
2021/08/30 00:03:39;;;;;;;15.52;8.75;;;16.10;99.90;;;;;;5012897;28;20445;-77
2021/08/30 00:06:05;;;;;;;14.57;9.32;;;16.10;99.90;;;;;;5013057;28;20045;-77
2021/08/30 00:08:30;;;;;;;13.70;10.13;;;16.10;99.90;;;;;;5012044;28;20527;-77
2021/08/30 00:10:56;;;;;;;13.63;7.97;;;16.10;99.90;;;;;;5012971;28;20034;-77
2021/08/30 00:13:22;;;;;;;11.45;7.95;;;16.10;99.90;;;;;;5012681;28;20021;-76
2021/08/30 00:15:47;;;;;;;12.10;7.95;;;16.10;99.90;;;;;;5012281;28;20026;-77
2021/08/30 00:18:13;;;;;;;11.30;8.00;;;16.10;99.90;;;;;;5012857;28;20029;-76
2021/08/30 00:20:38;;;;;;;12.98;8.98;;;16.10;99.90;;;;;;5012663;28;20029;-76
2021/08/30 00:23:04;;;;;;;12.15;7.72;;;16.10;99.90;;;;;;5012238;28;20029;-75
2021/08/30 00:25:30;;;;;;;11.60;8.70;;;16.10;99.90;;;;;;5012121;28;20022;-76
2021/08/30 00:27:55;;;;;;;13.73;8.85;;;16.10;99.90;;;;;;5012809;28;20029;-75
2021/08/30 00:30:21;;;;;;;11.77;8.43;;;16.10;99.90;;;;;;5011955;28;20022;-75
2021/08/30 00:32:46;;;;;;;11.30;8.32;;;16.10;99.90;;;;;;5012302;28;20037;-75
2021/08/30 00:35:12;;;;;;;10.80;8.65;;;16.10;99.90;;;;;;5012464;28;20072;-77
2021/08/30 00:37:37;;;;;;;12.25;8.52;;;16.10;99.90;;;;;;5011767;28;20018;-75
2021/08/30 00:40:07;;;;;;;12.93;8.50;;;16.10;99.90;;;;;;5012886;28;20050;-74
2021/08/30 00:42:33;;;;;;;11.23;8.98;;;16.10;99.90;;;;;;5011440;28;20117;-76
2021/08/30 00:45:00;;;;;;;11.55;8.32;;;16.10;99.90;;;;;;5012580;28;20096;-77
2021/08/30 00:47:26;;;;;;;12.05;8.82;;;16.00;99.90;;;;;;5012422;28;20057;-77
2021/08/30 00:49:54;;;;;;;9.38;8.07;;;16.00;99.90;;;;;;5011242;28;20411;-75
2021/08/30 00:52:20;;;;;;;10.77;8.88;;;16.00;99.90;;;;;;5012597;28;20080;-75
2021/08/30 00:54:46;;;;;;;12.63;8.43;;;16.00;99.90;;;;;;5011991;28;20421;-76
2021/08/30 00:57:12;;;;;;;9.80;8.80;;;16.00;99.90;;;;;;5011882;28;20021;-75
2021/08/30 00:59:41;;;;;;;12.68;9.48;;;16.00;99.90;;;;;;5011912;28;20474;-75
2021/08/30 01:02:10;;;;;;;12.45;9.00;;;16.00;99.90;;;;;;5012257;28;20083;-75
2021/08/30 01:04:37;;;;;;;10.45;8.80;;;16.00;99.90;;;;;;5010471;28;20097;-76
2021/08/30 01:07:17;;;;;;;11.35;9.05;;;16.00;99.90;;;;;;5011709;28;20073;-76
2021/08/30 01:10:05;;;;;;;12.88;9.82;;;16.10;99.90;;;;;;5011549;28;20478;-76
2021/08/30 01:13:02;;;;;;;11.45;9.13;;;16.10;99.90;;;;;;5011464;28;20482;-76
2021/08/30 01:15:40;;;;;;;9.40;8.43;;;16.10;99.90;;;;;;4998727;28;20045;-76
2021/08/30 01:18:11;;;;;;;10.82;8.75;;;16.00;99.90;;;;;;5011608;28;20030;-76
2021/08/30 01:20:53;;;;;;;13.55;8.80;;;16.10;99.90;;;;;;5012245;28;20026;-78
2021/08/30 01:23:21;;;;;;;11.88;8.88;;;16.00;99.90;;;;;;5011773;28;20026;-77
2021/08/30 01:25:47;;;;;;;12.93;8.85;;;16.00;99.90;;;;;;5010908;28;20278;-77
2021/08/30 01:28:14;;;;;;;12.60;9.00;;;16.00;99.90;;;;;;5012255;28;20030;-77
2021/08/30 01:30:41;;;;;;;11.82;9.52;;;16.00;99.90;;;;;;5011730;28;20394;-77
2021/08/30 01:33:08;;;;;;;12.38;9.13;;;16.00;99.90;;;;;;5011352;28;20054;-77
2021/08/30 01:35:34;;;;;;;11.95;9.25;;;16.00;99.90;;;;;;5011780;28;20079;-77
2021/08/30 01:38:06;;;;;;;11.52;9.32;;;16.00;99.90;;;;;;5012184;28;20034;-77
2021/08/30 01:40:33;;;;;;;13.23;9.02;;;16.00;99.90;;;;;;5011474;28;20050;-77
2021/08/30 01:43:00;;;;;;;10.77;9.52;;;16.00;99.90;;;;;;5011896;28;20029;-77
2021/08/30 01:45:32;;;;;;;11.68;9.25;;;16.00;99.90;;;;;;5011843;28;20029;-78
2021/08/30 01:48:00;;;;;;;13.82;9.77;;;16.00;99.90;;;;;;5011151;28;20087;-76
2021/08/30 01:50:27;;;;;;;17.45;10.48;;;16.00;99.90;;;;;;5011705;28;20050;-77
2021/08/30 01:52:54;;;;;;;10.85;9.27;;;16.00;99.90;;;;;;5012189;28;20029;-77
2021/08/30 02:00:44;;;;;;;18.15;11.00;;;15.90;99.90;;;;;;5015023;28;20033;-77
2021/08/30 02:03:25;;;;;;;14.27;10.40;;;16.00;99.90;;;;;;5015003;28;20026;-77
2021/08/30 02:06:04;;;;;;;16.10;10.13;;;16.00;99.90;;;;;;5014859;28;20030;-77
2021/08/30 02:08:32;;;;;;;12.48;10.63;;;16.00;99.90;;;;;;5014523;28;20029;-77
2021/08/30 02:11:05;;;;;;;16.70;10.68;;;15.90;99.90;;;;;;5012747;28;20077;-76
2021/08/30 02:13:31;;;;;;;12.45;10.23;;;16.00;99.90;;;;;;5011675;28;20022;-77
2021/08/30 02:15:58;;;;;;;13.68;10.63;;;15.90;99.90;;;;;;5014695;28;20068;-77
2021/08/30 02:19:00;;;;;;;16.58;11.05;;;15.90;99.90;;;;;;5015131;28;20053;-76
2021/08/30 02:21:39;;;;;;;14.25;10.20;;;16.00;99.90;;;;;;5014384;28;20560;-76
2021/08/30 02:24:22;;;;;;;19.30;11.43;;;15.90;99.90;;;;;;5015213;28;20101;-77
2021/08/30 02:27:06;;;;;;;14.20;11.00;;;15.90;99.90;;;;;;5014955;28;20045;-75
2021/08/30 02:29:39;;;;;;;13.10;11.02;;;15.90;99.90;;;;;;5002383;28;20021;-74
2021/08/30 02:32:07;;;;;;;16.90;11.80;;;15.90;99.90;;;;;;5014885;28;20030;-77
2021/08/30 02:34:35;;;;;;;23.13;12.18;;;16.00;99.90;;;;;;5014686;28;20036;-75
2021/08/30 02:37:02;;;;;;;18.45;12.60;;;16.00;99.90;;;;;;5014406;28;20026;-75
2021/08/30 02:39:29;;;;;;;26.85;12.60;;;15.90;99.90;;;;;;5014312;28;20034;-75
2021/08/30 02:41:56;;;;;;;21.27;12.70;;;15.90;99.90;;;;;;5014942;28;20026;-75
2021/08/30 02:44:22;;;;;;;19.67;12.52;;;15.90;99.90;;;;;;5013901;28;20022;-76
2021/08/30 02:46:48;;;;;;;17.27;11.65;;;15.90;99.90;;;;;;5014517;28;20167;-76
2021/08/30 02:49:17;;;;;;;15.35;11.52;;;15.80;99.90;;;;;;5013746;28;20048;-75
2021/08/30 02:51:44;;;;;;;18.80;12.20;;;15.80;99.90;;;;;;5014579;28;20433;-75
2021/08/30 02:54:11;;;;;;;17.90;11.57;;;15.90;99.90;;;;;;5014194;28;20026;-75
2021/08/30 02:56:41;;;;;;;20.05;12.32;;;15.90;99.90;;;;;;5013584;28;20049;-76
2021/08/30 02:59:08;;;;;;;17.13;12.52;;;15.80;99.90;;;;;;5014640;28;20108;-75
2021/08/30 03:01:34;;;;;;;21.20;13.50;;;15.80;99.90;;;;;;5014266;28;20066;-76
2021/08/30 03:04:00;;;;;;;18.40;12.90;;;15.80;99.90;;;;;;5012712;28;20075;-75
2021/08/30 03:06:26;;;;;;;24.05;14.20;;;15.80;99.90;;;;;;5013725;28;20038;-75
2021/08/30 03:08:52;;;;;;;20.95;13.55;;;16.00;99.90;;;;;;5014469;28;20107;-76
2021/08/30 03:11:21;;;;;;;23.50;14.27;;;15.80;99.90;;;;;;5013308;28;20459;-77
2021/08/30 03:13:47;;;;;;;22.27;14.00;;;15.70;99.90;;;;;;5013939;28;20030;-76
2021/08/30 03:16:14;;;;;;;22.58;14.02;;;15.70;99.90;;;;;;5014348;28;20034;-76
2021/08/30 03:18:40;;;;;;;22.10;14.20;;;15.70;99.90;;;;;;5013119;28;20053;-76
2021/08/30 03:21:07;;;;;;;23.42;15.35;;;15.60;99.90;;;;;;5014088;28;20493;-76
2021/08/30 03:23:35;;;;;;;25.63;15.98;;;15.50;99.90;;;;;;5013689;28;20104;-75
2021/08/30 03:26:01;;;;;;;24.90;15.52;;;15.50;99.90;;;;;;5013228;28;20041;-75
2021/08/30 03:28:28;;;;;;;24.50;15.80;;;15.40;99.90;;;;;;5013469;28;20459;-75
2021/08/30 03:30:54;;;;;;;30.27;17.15;;;15.30;99.90;;;;;;5013797;28;20360;-75
2021/08/30 03:33:20;;;;;;;21.58;15.82;;;15.30;99.90;;;;;;5013409;28;20044;-76
2021/08/30 03:35:47;;;;;;;28.23;16.85;;;15.20;99.90;;;;;;5013950;28;20039;-75
2021/08/30 03:38:14;;;;;;;29.10;18.02;;;15.20;99.90;;;;;;5014516;28;20037;-75
2021/08/30 03:40:42;;;;;;;26.95;16.60;;;15.20;99.90;;;;;;5012532;28;20034;-77
2021/08/30 03:43:09;;;;;;;26.77;17.67;;;15.10;99.90;;;;;;5013664;28;20172;-77
2021/08/30 03:45:35;;;;;;;34.15;17.38;;;15.10;99.90;;;;;;5012673;28;20037;-76
2021/08/30 03:48:03;;;;;;;31.00;17.00;;;15.00;99.90;;;;;;5013600;28;20034;-76
2021/08/30 03:50:30;;;;;;;29.98;16.92;;;15.00;99.90;;;;;;5012736;28;20509;-76
2021/08/30 03:52:56;;;;;;;27.33;17.65;;;14.90;99.90;;;;;;5012873;28;20029;-77
2021/08/30 03:55:22;;;;;;;29.35;18.10;;;14.80;99.90;;;;;;5013321;28;20036;-76
2021/08/30 03:57:52;;;;;;;29.52;17.17;;;14.80;99.90;;;;;;5012932;28;20492;-76
2021/08/30 04:00:18;;;;;;;29.38;18.13;;;14.80;99.90;;;;;;5012899;28;20025;-76
2021/08/30 04:02:45;;;;;;;26.00;17.67;;;14.70;99.90;;;;;;5012765;28;20390;-76
2021/08/30 04:05:17;;;;;;;31.83;17.80;;;14.70;99.90;;;;;;5013424;28;20030;-76
2021/08/30 04:07:43;;;;;;;25.92;17.20;;;14.60;99.90;;;;;;5012058;28;20777;-76
2021/08/30 04:10:09;;;;;;;31.17;17.75;;;14.60;99.90;;;;;;5013452;28;20466;-76
2021/08/30 04:12:35;;;;;;;24.27;16.25;;;14.60;99.90;;;;;;5012840;28;20041;-76
2021/08/30 04:15:01;;;;;;;28.60;18.20;;;14.60;99.90;;;;;;5012534;28;20022;-77
2021/08/30 04:17:27;;;;;;;29.58;18.00;;;14.60;99.90;;;;;;5012652;28;20022;-77
2021/08/30 04:19:52;;;;;;;37.50;18.90;;;14.50;99.90;;;;;;5012960;28;20045;-76
2021/08/30 04:22:18;;;;;;;39.17;20.45;;;14.50;99.90;;;;;;5012132;28;20037;-76
2021/08/30 04:24:43;;;;;;;43.58;20.25;;;14.60;99.90;;;;;;5012666;28;20036;-77
2021/08/30 04:27:10;;;;;;;39.53;20.30;;;14.60;99.90;;;;;;5012601;28;20065;-76
2021/08/30 04:29:36;;;;;;;34.05;19.92;;;14.70;99.90;;;;;;5011901;28;20100;-75
2021/08/30 04:32:01;;;;;;;36.60;19.85;;;14.80;99.90;;;;;;5012558;28;20105;-77
2021/08/30 04:34:28;;;;;;;32.05;19.83;;;14.80;99.90;;;;;;5012362;28;20018;-77
2021/08/30 04:36:53;;;;;;;31.55;19.90;;;14.90;99.90;;;;;;5011830;28;20022;-76
2021/08/30 04:39:19;;;;;;;35.28;19.00;;;14.90;99.90;;;;;;5012735;28;20097;-76
2021/08/30 04:41:45;;;;;;;35.22;18.67;;;15.00;99.90;;;;;;5011489;28;20041;-76
2021/08/30 04:44:12;;;;;;;36.35;18.80;;;15.00;99.90;;;;;;5012448;28;20056;-77
2021/08/30 04:46:37;;;;;;;27.40;18.40;;;15.00;99.90;;;;;;5011733;28;20390;-77
2021/08/30 04:49:03;;;;;;;29.35;19.25;;;15.00;99.90;;;;;;5011140;28;20042;-76
2021/08/30 04:51:29;;;;;;;36.75;20.15;;;15.10;99.90;;;;;;5011968;28;20115;-77
2021/08/30 04:53:54;;;;;;;33.00;19.52;;;15.00;99.90;;;;;;5012318;28;20493;-74
2021/08/30 04:56:20;;;;;;;31.90;19.85;;;15.00;99.90;;;;;;5011630;28;20022;-77
2021/08/30 04:58:45;;;;;;;32.35;19.65;;;15.10;99.90;;;;;;5012089;28;20034;-77
2021/08/30 05:01:11;;;;;;;35.05;20.52;;;15.10;99.90;;;;;;5001185;28;20374;-75
2021/08/30 05:03:37;;;;;;;28.33;18.98;;;15.10;99.90;;;;;;4998811;28;20126;-77
2021/08/30 05:06:03;;;;;;;34.53;20.17;;;15.10;99.90;;;;;;5001498;28;20113;-74
2021/08/30 05:08:28;;;;;;;32.10;18.90;;;15.20;99.90;;;;;;5000084;28;20448;-74
2021/08/30 05:10:54;;;;;;;33.60;19.85;;;15.20;99.90;;;;;;4993818;28;20514;-77
2021/08/30 05:13:20;;;;;;;28.92;19.83;;;15.20;99.90;;;;;;4998134;28;20034;-77
2021/08/30 05:15:45;;;;;;;31.27;18.85;;;15.20;99.90;;;;;;5000997;28;20026;-75
2021/08/30 05:18:11;;;;;;;31.35;20.42;;;15.20;99.90;;;;;;4997206;28;20026;-77
2021/08/30 05:20:37;;;;;;;33.67;20.27;;;15.30;99.90;;;;;;4996675;28;20041;-77
2021/08/30 05:23:02;;;;;;;32.42;20.20;;;15.30;99.90;;;;;;4993375;28;20033;-74
2021/08/30 05:25:28;;;;;;;34.78;20.48;;;15.30;99.90;;;;;;5006815;28;20078;-77
2021/08/30 05:27:53;;;;;;;34.90;21.13;;;15.30;99.90;;;;;;5012158;28;20026;-76
2021/08/30 05:30:19;;;;;;;33.90;20.73;;;15.30;99.90;;;;;;5014127;28;20025;-75
2021/08/30 05:32:45;;;;;;;37.28;19.98;;;15.40;99.90;;;;;;5014434;28;20509;-75
2021/08/30 05:35:11;;;;;;;37.80;20.63;;;15.40;99.90;;;;;;5015664;28;20504;-75
2021/08/30 05:37:37;;;;;;;29.83;20.85;;;15.40;99.90;;;;;;5015698;28;20105;-75
2021/08/30 05:40:04;;;;;;;39.88;21.65;;;15.50;99.90;;;;;;5015304;28;20037;-75
2021/08/30 05:42:30;;;;;;;33.00;20.92;;;15.50;99.90;;;;;;5006725;28;20026;-75
2021/08/30 05:44:55;;;;;;;34.92;21.13;;;15.50;99.90;;;;;;5001972;28;20041;-74
2021/08/30 05:47:22;;;;;;;37.45;20.80;;;15.50;99.90;;;;;;4995874;28;20035;-76
2021/08/30 05:49:47;;;;;;;37.35;20.50;;;15.60;99.90;;;;;;4997935;28;20046;-76
2021/08/30 05:52:13;;;;;;;35.70;20.83;;;15.60;99.90;;;;;;4997751;28;20026;-76
2021/08/30 05:54:39;;;;;;;63.70;21.02;;;15.70;99.90;;;;;;4998198;28;20072;-76
2021/08/30 05:57:04;;;;;;;33.58;21.85;;;15.70;99.90;;;;;;5014408;28;20116;-76
2021/08/30 05:59:30;;;;;;;35.88;21.13;;;15.80;99.90;;;;;;5013831;28;20082;-76
2021/08/30 06:01:56;;;;;;;32.33;21.13;;;15.80;99.90;;;;;;5009917;28;20106;-75
2021/08/30 06:04:21;;;;;;;39.70;21.45;;;15.90;99.90;;;;;;5013883;28;20025;-76
2021/08/30 06:06:47;;;;;;;29.90;21.23;;;15.90;99.90;;;;;;5014086;28;20128;-75
2021/08/30 06:09:12;;;;;;;30.77;20.10;;;15.90;99.90;;;;;;5014528;28;20474;-76
2021/08/30 06:11:38;;;;;;;32.72;21.30;;;16.00;99.90;;;;;;5013950;28;20022;-75
2021/08/30 06:14:03;;;;;;;33.03;20.10;;;16.00;99.90;;;;;;5010930;28;20033;-76
2021/08/30 06:16:29;;;;;;;37.67;20.65;;;16.00;99.90;;;;;;5013533;28;20029;-77
2021/08/30 06:18:57;;;;;;;33.28;20.08;;;16.10;99.90;;;;;;5014722;28;20029;-77
2021/08/30 06:21:23;;;;;;;33.70;20.95;;;16.10;99.90;;;;;;5014499;28;20117;-75
2021/08/30 06:23:48;;;;;;;36.17;20.55;;;16.10;99.90;;;;;;5014138;28;20101;-78
2021/08/30 06:26:14;;;;;;;35.47;20.63;;;16.10;99.90;;;;;;5013346;28;20045;-76
2021/08/30 06:28:39;;;;;;;35.85;20.30;;;16.20;99.90;;;;;;5012001;28;20168;-76
2021/08/30 06:31:05;;;;;;;32.13;20.10;;;16.20;99.90;;;;;;5013045;28;20480;-76
2021/08/30 06:33:31;;;;;;;31.65;19.90;;;16.20;99.90;;;;;;5012553;28;20029;-77
2021/08/30 06:35:56;;;;;;;29.88;19.65;;;16.20;99.90;;;;;;5012526;28;20022;-76
2021/08/30 06:38:22;;;;;;;27.58;19.83;;;16.20;99.90;;;;;;5014267;28;20032;-79
2021/08/30 06:40:47;;;;;;;26.65;19.80;;;16.30;99.90;;;;;;5014087;28;20125;-79
2021/08/30 06:43:13;;;;;;;32.03;19.85;;;16.30;99.90;;;;;;5013760;28;20100;-80
2021/08/30 06:45:38;;;;;;;34.10;19.55;;;16.30;99.90;;;;;;5013774;28;20041;-79
2021/08/30 06:48:04;;;;;;;31.45;20.50;;;16.40;99.90;;;;;;5014058;28;20494;-79
2021/08/30 06:50:30;;;;;;;31.77;19.33;;;16.40;99.90;;;;;;5013044;28;20129;-79
2021/08/30 06:52:56;;;;;;;33.25;20.48;;;16.50;99.90;;;;;;5011648;28;20029;-79
2021/08/30 06:55:22;;;;;;;28.40;20.05;;;16.50;99.90;;;;;;5014045;28;20097;-78
2021/08/30 06:57:48;;;;;;;23.08;18.65;;;16.60;99.90;;;;;;5014303;28;20033;-78
2021/08/30 07:00:17;;;;;;;29.05;18.80;;;16.70;99.90;;;;;;5014574;28;20466;-77
2021/08/30 07:02:43;;;;;;;26.48;18.70;;;16.80;99.90;;;;;;5013400;28;20025;-78
2021/08/30 07:05:09;;;;;;;31.60;19.25;;;16.90;99.90;;;;;;5014327;28;20024;-78
2021/08/30 07:07:34;;;;;;;32.30;20.10;;;16.90;99.90;;;;;;5014236;28;20068;-80
2021/08/30 07:10:00;;;;;;;27.55;19.30;;;16.90;99.90;;;;;;5014039;28;20025;-79
2021/08/30 07:12:25;;;;;;;29.45;17.23;;;16.90;99.90;;;;;;5014262;28;20025;-80
2021/08/30 07:14:51;;;;;;;26.25;18.30;;;17.00;99.90;;;;;;5014161;28;20041;-80
2021/08/30 07:17:17;;;;;;;26.77;19.10;;;17.00;99.90;;;;;;5013684;28;20454;-80
2021/08/30 07:19:42;;;;;;;26.25;19.50;;;17.00;99.90;;;;;;5013746;28;20030;-80
2021/08/30 07:22:08;;;;;;;33.05;18.88;;;17.10;99.90;;;;;;5013919;28;20475;-80
2021/08/30 07:24:34;;;;;;;25.48;18.00;;;17.00;99.90;;;;;;5012634;28;20018;-80
2021/08/30 07:27:03;;;;;;;27.80;19.05;;;17.00;99.90;;;;;;5013512;28;20037;-80
2021/08/30 07:29:30;;;;;;;30.33;19.08;;;17.00;99.90;;;;;;5013237;28;20021;-81
2021/08/30 07:31:59;;;;;;;33.85;19.35;;;17.10;99.90;;;;;;5013568;28;20029;-80
2021/08/30 07:34:25;;;;;;;37.45;18.52;;;17.10;99.90;;;;;;5014043;28;20454;-80
2021/08/30 07:36:53;;;;;;;26.92;18.88;;;17.10;99.90;;;;;;5014126;28;20037;-80
2021/08/30 07:39:19;;;;;;;35.97;20.67;;;17.10;99.90;;;;;;5013219;28;20018;-78
2021/08/30 07:41:44;;;;;;;30.52;19.98;;;17.10;99.90;;;;;;5013540;28;20030;-78
2021/08/30 07:44:10;;;;;;;33.42;18.70;;;17.10;99.90;;;;;;5013558;28;20026;-79
2021/08/30 07:46:35;;;;;;;31.17;19.77;;;16.90;99.90;;;;;;5012552;28;20121;-76
2021/08/30 07:49:01;;;;;;;30.58;18.50;;;17.00;99.90;;;;;;5012002;28;20038;-76
2021/08/30 07:51:26;;;;;;;30.65;18.10;;;17.00;99.90;;;;;;5012496;28;20029;-76
2021/08/30 07:53:52;;;;;;;29.40;19.27;;;17.00;99.90;;;;;;5014184;28;20462;-82
2021/08/30 07:56:18;;;;;;;32.55;20.05;;;17.00;99.90;;;;;;5028051;28;20077;-82
2021/08/30 07:58:43;;;;;;;30.63;18.35;;;17.10;99.90;;;;;;5021499;28;20053;-82
2021/08/30 08:01:09;;;;;;;35.33;19.23;;;17.10;99.90;;;;;;5028384;28;20110;-82
2021/08/30 08:03:35;;;;;;;33.30;19.85;;;17.10;99.90;;;;;;5027810;28;20038;-81
2021/08/30 08:06:00;;;;;;;31.48;17.75;;;17.20;99.90;;;;;;5029003;28;20037;-82
2021/08/30 08:08:26;;;;;;;26.20;17.70;;;17.20;99.90;;;;;;5027439;28;20038;-75
2021/08/30 08:10:51;;;;;;;30.15;17.95;;;17.30;99.90;;;;;;5025292;28;20030;-81
2021/08/30 08:13:17;;;;;;;34.53;18.15;;;17.30;99.90;;;;;;5027497;28;20117;-82
2021/08/30 08:15:43;;;;;;;32.08;19.25;;;17.30;99.90;;;;;;5018433;28;20026;-82
2021/08/30 08:18:08;;;;;;;30.80;17.65;;;17.30;99.90;;;;;;5018240;28;20037;-82
2021/08/30 08:20:37;;;;;;;32.10;18.48;;;17.40;99.90;;;;;;5023881;28;20021;-83
2021/08/30 08:23:04;;;;;;;29.33;17.33;;;17.50;99.90;;;;;;5027358;28;20029;-81
2021/08/30 08:25:30;;;;;;;28.75;17.55;;;17.50;99.90;;;;;;5030056;28;20097;-79
2021/08/30 08:28:00;;;;;;;32.10;17.55;;;17.60;99.90;;;;;;5015251;28;20053;-81
2021/08/30 08:30:26;;;;;;;28.17;16.88;;;17.60;99.90;;;;;;5014947;28;20017;-82
2021/08/30 08:32:51;;;;;;;29.90;16.65;;;17.60;99.90;;;;;;5015604;28;20168;-81
2021/08/30 08:35:17;;;;;;;29.15;18.20;;;17.70;99.90;;;;;;5018619;28;20018;-80
2021/08/30 08:37:43;;;;;;;32.67;16.13;;;17.70;99.90;;;;;;5017805;28;20029;-80
2021/08/30 08:40:09;;;;;;;25.95;15.35;;;17.80;99.90;;;;;;5015485;28;20030;-79
2021/08/30 08:42:39;;;;;;;26.40;15.50;;;17.80;99.90;;;;;;5011633;28;20250;-80
2021/08/30 08:45:06;;;;;;;27.80;15.05;;;17.80;99.90;;;;;;5012130;28;20049;-80
2021/08/30 08:47:36;;;;;;;26.48;15.10;;;17.80;99.90;;;;;;5011658;28;20030;-79
2021/08/30 08:50:06;;;;;;;23.92;14.57;;;17.80;99.90;;;;;;5011489;28;20037;-79
2021/08/30 08:52:33;;;;;;;24.07;14.53;;;17.90;99.90;;;;;;5011611;28;20034;-79
2021/08/30 08:55:00;;;;;;;24.55;14.70;;;17.90;99.90;;;;;;5011574;28;20022;-80
2021/08/30 08:57:26;;;;;;;21.80;15.45;;;17.90;99.90;;;;;;5012028;28;20056;-80
2021/08/30 08:59:59;;;;;;;22.33;14.10;;;18.00;99.90;;;;;;5012026;28;20049;-80
2021/08/30 09:02:29;;;;;;;29.95;15.35;;;18.00;99.90;;;;;;5011529;28;20057;-81
2021/08/30 09:04:57;;;;;;;;;;;18.00;99.90;;;;;;5010252;28;20029;-80
2021/08/30 09:07:41;;;;;;;30.15;13.88;;;18.00;99.90;;;;;;5011996;28;19913;-80
2021/08/30 09:10:14;;;;;;;23.35;14.60;;;18.00;99.90;;;;;;5010875;28;20014;-81
2021/08/30 09:12:42;;;;;;;21.75;14.40;;;18.00;99.90;;;;;;5009959;28;20032;-83
2021/08/30 09:15:20;;;;;;;21.23;14.25;;;18.10;99.90;;;;;;5012991;28;20053;-82
2021/08/30 09:17:56;;;;;;;24.65;13.27;;;18.10;99.90;;;;;;5003854;28;20437;-80
2021/08/30 09:20:24;;;;;;;22.48;14.48;;;18.10;99.90;;;;;;5012343;28;20025;-83
2021/08/30 09:22:51;;;;;;;25.38;13.98;;;18.20;99.90;;;;;;5012119;28;20030;-81
2021/08/30 09:25:18;;;;;;;21.92;13.25;;;18.20;99.90;;;;;;5012349;28;20109;-82
2021/08/30 09:27:47;;;;;;;32.80;14.07;;;18.30;99.90;;;;;;5012142;28;20482;-82
2021/08/30 09:30:14;;;;;;;21.38;12.57;;;18.30;99.90;;;;;;5012064;28;20113;-82
2021/08/30 09:32:45;;;;;;;25.95;12.10;;;18.50;99.90;;;;;;5012338;28;20073;-83
2021/08/30 09:35:12;;;;;;;21.98;11.80;;;18.60;99.90;;;;;;5013947;28;20104;-85
2021/08/30 09:37:40;;;;;;;30.00;11.57;;;18.70;99.90;;;;;;5012512;28;20026;-84
2021/08/30 09:40:09;;;;;;;18.95;11.85;;;18.80;99.90;;;;;;5013297;28;20026;-83
2021/08/30 09:42:34;;;;;;;22.70;11.80;;;19.00;99.90;;;;;;5012826;28;20030;-82
2021/08/30 09:45:08;;;;;;;30.38;13.02;;;19.00;99.90;;;;;;5011888;28;20033;-82
2021/08/30 09:47:33;;;;;;;22.13;11.68;;;19.10;99.90;;;;;;5006787;28;20037;-81
2021/08/30 09:49:59;;;;;;;19.63;11.85;;;19.20;99.90;;;;;;5012350;28;20050;-84
2021/08/30 09:52:24;;;;;;;20.77;10.95;;;19.20;99.90;;;;;;5011609;28;20041;-82
2021/08/30 09:54:51;;;;;;;17.98;11.23;;;19.20;99.90;;;;;;5012069;28;20018;-83
2021/08/30 09:57:17;;;;;;;18.88;11.48;;;19.30;99.90;;;;;;5012532;28;20026;-83
2021/08/30 09:59:44;;;;;;;17.70;12.00;;;19.40;99.90;;;;;;5011342;28;20029;-82
2021/08/30 10:02:12;;;;;;;19.10;11.45;;;19.40;99.90;;;;;;5012338;28;20382;-83
2021/08/30 10:04:40;;;;;;;19.33;10.82;;;19.40;99.90;;;;;;5006403;28;20050;-83
2021/08/30 10:07:08;;;;;;;14.65;10.40;;;19.50;99.90;;;;;;5007703;28;20474;-81
2021/08/30 10:09:34;;;;;;;21.17;10.77;;;19.60;99.90;;;;;;5009546;28;20022;-83
2021/08/30 10:12:00;;;;;;;17.77;11.40;;;19.80;99.90;;;;;;5009743;28;20113;-82
2021/08/30 10:14:28;;;;;;;22.67;10.23;;;19.80;99.90;;;;;;5013290;28;20109;-82
2021/08/30 10:16:57;;;;;;;22.98;11.32;;;19.90;99.90;;;;;;5014000;28;20068;-83
2021/08/30 10:19:31;;;;;;;18.88;11.32;;;20.00;99.90;;;;;;5015113;28;20056;-81
2021/08/30 10:22:00;;;;;;;14.55;10.35;;;20.10;99.90;;;;;;5015559;28;20045;-84
2021/08/30 10:24:26;;;;;;;18.48;10.25;;;20.30;99.90;;;;;;5013710;28;20026;-81
2021/08/30 10:27:02;;;;;;;18.27;10.82;;;20.40;99.90;;;;;;5014569;28;20116;-82
2021/08/30 10:29:35;;;;;;;18.35;10.30;;;20.40;99.90;;;;;;5016874;28;20054;-83
2021/08/30 10:32:05;;;;;;;17.35;10.82;;;20.40;99.90;;;;;;5015971;28;20052;-82
2021/08/30 10:34:34;;;;;;;14.02;9.80;;;20.40;99.90;;;;;;5014684;28;20018;-82
2021/08/30 10:37:02;;;;;;;11.43;9.07;;;20.40;99.90;;;;;;5015454;28;20389;-80
2021/08/30 10:39:45;;;;;;;20.83;11.05;;;20.30;99.90;;;;;;5014930;28;20032;-81
2021/08/30 10:42:12;;;;;;;18.15;10.55;;;20.20;99.90;;;;;;5011053;28;20057;-82
2021/08/30 10:44:55;;;;;;;17.85;10.52;;;20.30;99.90;;;;;;5006059;28;20010;-81
2021/08/30 10:47:23;;;;;;;20.80;11.40;;;20.30;99.90;;;;;;5014643;28;20125;-81
2021/08/30 10:49:51;;;;;;;14.07;9.93;;;20.30;99.90;;;;;;5015015;28;20080;-80
2021/08/30 10:52:16;;;;;;;18.27;10.95;;;20.30;99.90;;;;;;5015297;28;20113;-82
2021/08/30 10:54:58;;;;;;;14.45;10.05;;;20.30;99.90;;;;;;5014704;28;20124;-82
2021/08/30 10:57:35;;;;;;;18.02;11.13;;;20.20;99.90;;;;;;5015514;28;20041;-82
2021/08/30 11:00:00;;;;;;;17.05;10.18;;;20.10;99.90;;;;;;5015247;28;20032;-81
2021/08/30 11:02:49;;;;;;;15.75;9.93;;;20.20;99.90;;;;;;5014713;28;20410;-81
2021/08/30 11:05:24;;;;;;;18.98;10.95;;;20.30;99.90;;;;;;5014975;28;20022;-81
2021/08/30 11:07:53;;;;;;;16.88;10.70;;;20.50;99.90;;;;;;5014287;28;20061;-79
2021/08/30 11:10:20;;;;;;;15.77;9.90;;;20.70;99.90;;;;;;5014365;28;20034;-81
2021/08/30 11:12:46;;;;;;;16.05;10.27;;;20.70;99.90;;;;;;5014713;28;20049;-81
2021/08/30 11:15:12;;;;;;;16.20;10.38;;;20.80;99.90;;;;;;5015122;28;20400;-82
2021/08/30 11:17:39;;;;;;;21.98;10.05;;;20.70;99.90;;;;;;5019670;28;20018;-81
2021/08/30 11:20:10;;;;;;;17.17;10.25;;;20.70;99.90;;;;;;5022937;28;20037;-80
2021/08/30 11:22:36;;;;;;;15.18;9.80;;;20.60;99.90;;;;;;5022494;28;20121;-81
2021/08/30 11:25:04;;;;;;;13.15;10.07;;;20.60;99.90;;;;;;5011986;28;20109;-81
2021/08/30 11:27:32;;;;;;;16.92;9.38;;;20.60;99.90;;;;;;5011752;28;20030;-80
2021/08/30 11:30:00;;;;;;;11.63;8.90;;;20.60;99.90;;;;;;5012205;28;20059;-80
2021/08/30 11:32:28;;;;;;;12.13;9.15;;;20.80;99.90;;;;;;5012726;28;20026;-79
2021/08/30 11:34:55;;;;;;;11.25;9.75;;;20.90;99.90;;;;;;5014626;28;20084;-81
2021/08/30 11:37:26;;;;;;;9.30;8.15;;;20.90;99.90;;;;;;5013849;28;20014;-81
2021/08/30 11:39:55;;;;;;;10.60;8.52;;;20.80;99.90;;;;;;5014549;28;20323;-81
2021/08/30 11:42:32;;;;;;;10.07;7.57;;;20.70;99.90;;;;;;5014949;28;20394;-82
2021/08/30 11:45:00;;;;;;;9.68;7.88;;;20.60;99.90;;;;;;5019600;28;20021;-80
2021/08/30 11:47:27;;;;;;;10.43;8.15;;;20.60;99.90;;;;;;5020834;28;20030;-82
2021/08/30 11:49:55;;;;;;;16.05;9.45;;;20.70;99.90;;;;;;5019198;28;20103;-81
2021/08/30 11:52:25;;;;;;;13.95;8.73;;;20.70;99.90;;;;;;5014958;28;20053;-81
2021/08/30 11:55:02;;;;;;;11.38;8.05;;;20.80;99.90;;;;;;5014118;28;20032;-80
2021/08/30 11:57:39;;;;;;;11.13;8.50;;;20.90;99.90;;;;;;5013928;28;20109;-82
2021/08/30 12:00:10;;;;;;;11.35;9.32;;;21.10;99.90;;;;;;5014625;28;20030;-79
2021/08/30 12:02:36;;;;;;;11.18;8.90;;;21.20;99.90;;;;;;5026327;28;20025;-80
2021/08/30 12:05:03;;;;;;;14.15;9.52;;;21.20;99.90;;;;;;5025456;28;20092;-82
2021/08/30 12:07:32;;;;;;;15.60;10.25;;;21.30;99.90;;;;;;5019532;28;20040;-81
2021/08/30 12:09:59;;;;;;;11.73;8.68;;;21.40;99.90;;;;;;5014166;28;20049;-82
2021/08/30 12:12:31;;;;;;;9.15;8.20;;;21.40;99.90;;;;;;5013104;28;20026;-82
2021/08/30 12:14:58;;;;;;;15.50;8.73;;;21.30;99.90;;;;;;5012948;28;20049;-81
2021/08/30 12:17:25;;;;;;;11.48;9.25;;;21.20;99.90;;;;;;5013171;28;20029;-83
2021/08/30 12:19:59;;;;;;;20.13;10.15;;;20.90;99.90;;;;;;5011884;28;20364;-82
2021/08/30 12:22:29;;;;;;;10.35;8.93;;;20.90;99.90;;;;;;5003584;28;20037;-82
2021/08/30 12:24:59;;;;;;;;;;;20.90;99.90;;;;;;5013860;28;20105;-82
2021/08/30 12:27:26;;;;;;;8.65;7.75;;;21.00;99.90;;;;;;5013026;28;19917;-81
2021/08/30 12:29:51;;;;;;;12.93;7.68;;;21.10;99.90;;;;;;5013289;28;20022;-78
2021/08/30 12:32:17;;;;;;;10.00;7.28;;;21.20;99.90;;;;;;5014412;28;20028;-81
2021/08/30 12:34:43;;;;;;;9.43;7.32;;;21.20;99.90;;;;;;5014012;28;20025;-81
2021/08/30 12:37:09;;;;;;;10.38;6.82;;;21.40;99.90;;;;;;5014813;28;20022;-82
2021/08/30 12:39:34;;;;;;;11.45;8.13;;;21.50;99.90;;;;;;5015106;28;20120;-81